BAW2T EGLL-EGCC
Flight info
| Callsign | BAW2T |
|---|---|
| Flight time | 0h 32m |
| Altitude | 18000 |
| Route | ULTIB T420 ELVOS |
| Aircraft | A321/M-SDE3FGHIRWY/LB1 |
Departure
| Time | 2026-05-04 22:06 |
|---|---|
| Airport | London Heathrow Airport (EGLL) |
Arrival
| Time | 2026-05-04 22:39 |
|---|---|
| Airport | Manchester Airport (EGCC) |
| Time | Latitude | Longitude | Altitude | Speed | Heading |
|---|---|---|---|---|---|
| 2026-05-04 21:44 | 51.46925 | -0.48574 | 92 ft | 0 kts | 0° |
| 2026-05-04 21:54 | 51.46919 | -0.48574 | 92 ft | 2 kts | 0° |
| 2026-05-04 21:54 | 51.46908 | -0.48574 | 92 ft | 0 kts | 0° |
| 2026-05-04 21:54 | 51.46893 | -0.48570 | 92 ft | 2 kts | 331° |
| 2026-05-04 21:55 | 51.46882 | -0.48555 | 92 ft | 2 kts | 305° |
| 2026-05-04 21:55 | 51.46876 | -0.48533 | 92 ft | 1 kts | 277° |
| 2026-05-04 21:55 | 51.46876 | -0.48523 | 92 ft | 1 kts | 266° |
| 2026-05-04 21:55 | 51.46876 | -0.48517 | 92 ft | 0 kts | 270° |
| 2026-05-04 21:57 | 51.46876 | -0.48519 | 92 ft | 0 kts | 270° |
| 2026-05-04 21:57 | 51.46876 | -0.48536 | 92 ft | 2 kts | 276° |
| 2026-05-04 21:57 | 51.46876 | -0.48550 | 92 ft | 0 kts | 270° |
| 2026-05-04 21:58 | 51.46876 | -0.48552 | 92 ft | 1 kts | 270° |
| 2026-05-04 21:59 | 51.46876 | -0.48599 | 92 ft | 7 kts | 270° |
| 2026-05-04 21:59 | 51.46875 | -0.48698 | 92 ft | 9 kts | 260° |
| 2026-05-04 21:59 | 51.46825 | -0.48749 | 92 ft | 9 kts | 186° |
| 2026-05-04 21:59 | 51.46756 | -0.48750 | 92 ft | 9 kts | 180° |
| 2026-05-04 22:00 | 51.46690 | -0.48750 | 92 ft | 8 kts | 180° |
| 2026-05-04 22:00 | 51.46641 | -0.48750 | 92 ft | 2 kts | 187° |
| 2026-05-04 22:00 | 51.46617 | -0.48761 | 92 ft | 4 kts | 199° |
| 2026-05-04 22:00 | 51.46607 | -0.48766 | 92 ft | 0 kts | 197° |
| 2026-05-04 22:05 | 51.46575 | -0.48781 | 92 ft | 9 kts | 196° |
| 2026-05-04 22:05 | 51.46508 | -0.48771 | 92 ft | 10 kts | 152° |
| 2026-05-04 22:05 | 51.46477 | -0.48667 | 92 ft | 11 kts | 92° |
| 2026-05-04 22:06 | 51.46479 | -0.48346 | 92 ft | 61 kts | 90° |
| 2026-05-04 22:06 | 51.46480 | -0.47259 | 92 ft | 129 kts | 88° |
| 2026-05-04 22:06 | 51.46492 | -0.45530 | 209 ft | 172 kts | 87° |
| 2026-05-04 22:06 | 51.46525 | -0.43625 | 963 ft | 169 kts | 85° |
| 2026-05-04 22:07 | 51.46630 | -0.41851 | 1773 ft | 160 kts | 71° |
| 2026-05-04 22:07 | 51.47164 | -0.40357 | 2314 ft | 159 kts | 50° |
| 2026-05-04 22:07 | 51.47927 | -0.38954 | 2645 ft | 174 kts | 47° |
| 2026-05-04 22:07 | 51.48767 | -0.37452 | 2973 ft | 190 kts | 47° |
| 2026-05-04 22:08 | 51.49686 | -0.35789 | 3310 ft | 207 kts | 48° |
| 2026-05-04 22:08 | 51.50688 | -0.33960 | 3588 ft | 229 kts | 48° |
| 2026-05-04 22:08 | 51.51753 | -0.31949 | 3977 ft | 247 kts | 54° |
| 2026-05-04 22:08 | 51.52523 | -0.29418 | 4515 ft | 259 kts | 69° |
| 2026-05-04 22:09 | 51.53082 | -0.26677 | 5240 ft | 264 kts | 71° |
| 2026-05-04 22:09 | 51.53649 | -0.23852 | 5735 ft | 267 kts | 71° |
| 2026-05-04 22:09 | 51.54261 | -0.21023 | 5956 ft | 268 kts | 66° |
| 2026-05-04 22:09 | 51.55361 | -0.18641 | 5953 ft | 264 kts | 36° |
| 2026-05-04 22:10 | 51.57013 | -0.17467 | 6038 ft | 268 kts | 8° |
| 2026-05-04 22:10 | 51.58873 | -0.17779 | 6612 ft | 273 kts | 339° |
| 2026-05-04 22:10 | 51.60407 | -0.19479 | 7461 ft | 273 kts | 311° |
| 2026-05-04 22:10 | 51.61565 | -0.21907 | 8126 ft | 275 kts | 309° |
| 2026-05-04 22:11 | 51.62860 | -0.24170 | 8813 ft | 279 kts | 318° |
| 2026-05-04 22:11 | 51.64393 | -0.26113 | 9515 ft | 281 kts | 325° |
| 2026-05-04 22:11 | 51.66025 | -0.27849 | 10181 ft | 285 kts | 328° |
| 2026-05-04 22:11 | 51.67742 | -0.29547 | 10607 ft | 297 kts | 328° |
| 2026-05-04 22:12 | 51.69551 | -0.31295 | 10849 ft | 313 kts | 329° |
| 2026-05-04 22:12 | 51.71491 | -0.33165 | 11151 ft | 328 kts | 329° |
| 2026-05-04 22:12 | 51.73473 | -0.35076 | 11511 ft | 341 kts | 329° |
| 2026-05-04 22:12 | 51.75526 | -0.37058 | 12083 ft | 345 kts | 328° |
| 2026-05-04 22:13 | 51.77592 | -0.39055 | 12709 ft | 347 kts | 328° |
| 2026-05-04 22:13 | 51.79674 | -0.41071 | 13309 ft | 350 kts | 329° |
| 2026-05-04 22:13 | 51.81769 | -0.43101 | 13890 ft | 353 kts | 329° |
| 2026-05-04 22:13 | 51.83865 | -0.45133 | 14477 ft | 356 kts | 329° |
| 2026-05-04 22:14 | 51.85459 | -0.46680 | 14889 ft | 359 kts | 328° |
| 2026-05-04 22:14 | 51.86060 | -0.47263 | 15045 ft | 360 kts | 328° |
| 2026-05-04 22:14 | 51.88221 | -0.49363 | 15581 ft | 363 kts | 328° |
| 2026-05-04 22:14 | 51.90378 | -0.51462 | 16128 ft | 366 kts | 328° |
| 2026-05-04 22:15 | 51.92568 | -0.53597 | 16656 ft | 370 kts | 328° |
| 2026-05-04 22:15 | 51.94783 | -0.55757 | 17176 ft | 373 kts | 328° |
| 2026-05-04 22:15 | 51.97001 | -0.57921 | 17685 ft | 376 kts | 328° |
| 2026-05-04 22:15 | 51.99236 | -0.60106 | 17969 ft | 378 kts | 328° |
| 2026-05-04 22:16 | 52.01499 | -0.62320 | 17997 ft | 377 kts | 328° |
| 2026-05-04 22:16 | 52.03738 | -0.64513 | 18005 ft | 377 kts | 328° |
| 2026-05-04 22:16 | 52.05982 | -0.66724 | 18009 ft | 377 kts | 327° |
| 2026-05-04 22:16 | 52.08215 | -0.68932 | 18008 ft | 377 kts | 327° |
| 2026-05-04 22:17 | 52.10449 | -0.71140 | 18007 ft | 376 kts | 327° |
| 2026-05-04 22:17 | 52.12713 | -0.73362 | 18007 ft | 376 kts | 327° |
| 2026-05-04 22:17 | 52.14966 | -0.75570 | 18007 ft | 376 kts | 327° |
| 2026-05-04 22:17 | 52.17213 | -0.77781 | 18007 ft | 376 kts | 327° |
| 2026-05-04 22:18 | 52.19450 | -0.79990 | 18007 ft | 376 kts | 327° |
| 2026-05-04 22:18 | 52.21697 | -0.82213 | 18007 ft | 376 kts | 327° |
| 2026-05-04 22:18 | 52.23929 | -0.84426 | 18006 ft | 376 kts | 327° |
| 2026-05-04 22:18 | 52.26164 | -0.86641 | 18007 ft | 376 kts | 327° |
| 2026-05-04 22:19 | 52.28383 | -0.88842 | 18007 ft | 376 kts | 327° |
| 2026-05-04 22:19 | 52.30621 | -0.91064 | 18007 ft | 376 kts | 327° |
| 2026-05-04 22:19 | 52.32882 | -0.93314 | 18005 ft | 377 kts | 327° |
| 2026-05-04 22:19 | 52.35093 | -0.95519 | 18007 ft | 377 kts | 327° |
| 2026-05-04 22:20 | 52.37335 | -0.97756 | 18004 ft | 376 kts | 327° |
| 2026-05-04 22:20 | 52.39566 | -0.99986 | 18005 ft | 376 kts | 327° |
| 2026-05-04 22:20 | 52.41837 | -1.02258 | 18007 ft | 376 kts | 327° |
| 2026-05-04 22:20 | 52.44033 | -1.04460 | 18006 ft | 375 kts | 327° |
| 2026-05-04 22:21 | 52.46281 | -1.06715 | 18009 ft | 375 kts | 327° |
| 2026-05-04 22:21 | 52.48510 | -1.08953 | 18005 ft | 374 kts | 327° |
| 2026-05-04 22:21 | 52.50720 | -1.11173 | 18007 ft | 373 kts | 327° |
| 2026-05-04 22:21 | 52.52910 | -1.13377 | 18006 ft | 371 kts | 327° |
| 2026-05-04 22:22 | 52.55115 | -1.15597 | 18008 ft | 370 kts | 327° |
| 2026-05-04 22:22 | 52.57313 | -1.17812 | 18010 ft | 369 kts | 327° |
| 2026-05-04 22:22 | 52.59488 | -1.20007 | 18011 ft | 369 kts | 327° |
| 2026-05-04 22:22 | 52.61661 | -1.22200 | 18014 ft | 369 kts | 327° |
| 2026-05-04 22:23 | 52.63868 | -1.24433 | 18016 ft | 369 kts | 327° |
| 2026-05-04 22:23 | 52.66050 | -1.26647 | 18014 ft | 369 kts | 327° |
| 2026-05-04 22:23 | 52.68222 | -1.28848 | 18010 ft | 369 kts | 327° |
| 2026-05-04 22:23 | 52.70435 | -1.31093 | 18018 ft | 369 kts | 327° |
| 2026-05-04 22:24 | 52.72612 | -1.33307 | 18018 ft | 369 kts | 327° |
| 2026-05-04 22:24 | 52.74806 | -1.35538 | 18018 ft | 369 kts | 327° |
| 2026-05-04 22:24 | 52.76975 | -1.37747 | 18019 ft | 369 kts | 326° |
| 2026-05-04 22:24 | 52.79175 | -1.39992 | 18019 ft | 369 kts | 326° |
| 2026-05-04 22:25 | 52.81358 | -1.42223 | 18018 ft | 369 kts | 326° |
| 2026-05-04 22:25 | 52.83535 | -1.44453 | 18005 ft | 368 kts | 326° |
| 2026-05-04 22:25 | 52.85718 | -1.46690 | 17575 ft | 369 kts | 326° |
| 2026-05-04 22:25 | 52.87918 | -1.48952 | 16732 ft | 377 kts | 326° |
| 2026-05-04 22:26 | 52.90136 | -1.51233 | 16098 ft | 378 kts | 327° |
| 2026-05-04 22:26 | 52.92353 | -1.53515 | 15595 ft | 375 kts | 327° |
| 2026-05-04 22:26 | 52.94568 | -1.55796 | 15108 ft | 372 kts | 327° |
| 2026-05-04 22:26 | 52.96775 | -1.58071 | 14600 ft | 370 kts | 327° |
| 2026-05-04 22:27 | 52.98949 | -1.60317 | 14103 ft | 367 kts | 327° |
| 2026-05-04 22:27 | 53.01104 | -1.62545 | 13617 ft | 365 kts | 327° |
| 2026-05-04 22:27 | 53.03239 | -1.64756 | 13146 ft | 362 kts | 326° |
| 2026-05-04 22:27 | 53.05241 | -1.67196 | 12680 ft | 357 kts | 318° |
| 2026-05-04 22:28 | 53.07000 | -1.70062 | 12274 ft | 351 kts | 310° |
| 2026-05-04 22:28 | 53.08581 | -1.73078 | 11943 ft | 345 kts | 309° |
| 2026-05-04 22:28 | 53.10115 | -1.76088 | 11606 ft | 339 kts | 309° |
| 2026-05-04 22:28 | 53.11643 | -1.79063 | 11255 ft | 333 kts | 309° |
| 2026-05-04 22:29 | 53.13132 | -1.81948 | 10905 ft | 328 kts | 310° |
| 2026-05-04 22:29 | 53.14623 | -1.84840 | 10554 ft | 323 kts | 310° |
| 2026-05-04 22:29 | 53.16068 | -1.87649 | 10223 ft | 319 kts | 310° |
| 2026-05-04 22:29 | 53.17497 | -1.90431 | 9895 ft | 314 kts | 310° |
| 2026-05-04 22:30 | 53.18910 | -1.93188 | 9574 ft | 309 kts | 310° |
| 2026-05-04 22:30 | 53.20311 | -1.95848 | 9277 ft | 304 kts | 315° |
| 2026-05-04 22:30 | 53.21615 | -1.97401 | 9125 ft | 298 kts | 334° |
| 2026-05-04 22:30 | 53.23579 | -1.98163 | 8952 ft | 290 kts | 359° |
| 2026-05-04 22:31 | 53.25542 | -1.97460 | 8797 ft | 283 kts | 20° |
| 2026-05-04 22:31 | 53.27300 | -1.96136 | 8632 ft | 275 kts | 24° |
| 2026-05-04 22:31 | 53.28939 | -1.94772 | 8480 ft | 267 kts | 25° |
| 2026-05-04 22:31 | 53.29888 | -1.93969 | 8391 ft | 263 kts | 25° |
| 2026-05-04 22:32 | 53.31490 | -1.92603 | 8234 ft | 255 kts | 25° |
| 2026-05-04 22:32 | 53.33048 | -1.91270 | 8029 ft | 248 kts | 25° |
| 2026-05-04 22:32 | 53.34569 | -1.89968 | 7735 ft | 246 kts | 25° |
| 2026-05-04 22:32 | 53.36097 | -1.88664 | 7422 ft | 245 kts | 25° |
| 2026-05-04 22:33 | 53.37625 | -1.87366 | 6916 ft | 254 kts | 25° |
| 2026-05-04 22:33 | 53.39263 | -1.86095 | 6378 ft | 260 kts | 15° |
| 2026-05-04 22:33 | 53.41043 | -1.85954 | 6016 ft | 256 kts | 345° |
| 2026-05-04 22:33 | 53.42599 | -1.87297 | 5717 ft | 251 kts | 316° |
| 2026-05-04 22:34 | 53.43681 | -1.89587 | 5400 ft | 249 kts | 303° |
| 2026-05-04 22:34 | 53.44593 | -1.92051 | 5038 ft | 250 kts | 301° |
| 2026-05-04 22:34 | 53.45471 | -1.94539 | 4716 ft | 249 kts | 300° |
| 2026-05-04 22:34 | 53.46341 | -1.97036 | 4402 ft | 248 kts | 300° |
| 2026-05-04 22:35 | 53.47176 | -1.99551 | 4089 ft | 247 kts | 293° |
| 2026-05-04 22:35 | 53.47440 | -2.02376 | 3764 ft | 247 kts | 263° |
| 2026-05-04 22:35 | 53.46823 | -2.04965 | 3426 ft | 237 kts | 232° |
| 2026-05-04 22:35 | 53.45667 | -2.06871 | 3127 ft | 229 kts | 223° |
| 2026-05-04 22:36 | 53.44534 | -2.08683 | 2819 ft | 222 kts | 228° |
| 2026-05-04 22:36 | 53.43536 | -2.10590 | 2524 ft | 215 kts | 233° |
| 2026-05-04 22:36 | 53.42614 | -2.12528 | 2238 ft | 209 kts | 234° |
| 2026-05-04 22:36 | 53.41724 | -2.14398 | 1986 ft | 199 kts | 234° |
| 2026-05-04 22:37 | 53.40883 | -2.16132 | 1795 ft | 184 kts | 233° |
| 2026-05-04 22:37 | 53.40099 | -2.17740 | 1543 ft | 173 kts | 233° |
| 2026-05-04 22:37 | 53.39369 | -2.19243 | 1289 ft | 163 kts | 233° |
| 2026-05-04 22:37 | 53.38673 | -2.20677 | 1049 ft | 151 kts | 233° |
| 2026-05-04 22:38 | 53.38028 | -2.22009 | 843 ft | 146 kts | 233° |
| 2026-05-04 22:38 | 53.37393 | -2.23320 | 662 ft | 145 kts | 232° |
| 2026-05-04 22:38 | 53.36755 | -2.24628 | 481 ft | 144 kts | 232° |
| 2026-05-04 22:38 | 53.36129 | -2.25935 | 285 ft | 143 kts | 231° |
| 2026-05-04 22:39 | 53.35538 | -2.27162 | 232 ft | 120 kts | 231° |
| 2026-05-04 22:39 | 53.35102 | -2.28059 | 232 ft | 78 kts | 232° |
| 2026-05-04 22:39 | 53.34832 | -2.28617 | 232 ft | 49 kts | 232° |
| 2026-05-04 22:39 | 53.34672 | -2.28991 | 232 ft | 27 kts | 271° |
| 2026-05-04 22:40 | 53.34739 | -2.29058 | 232 ft | 6 kts | 343° |
| 2026-05-04 22:40 | 53.34757 | -2.29069 | 231 ft | 3 kts | 343° |
| 2026-05-04 22:40 | 53.34765 | -2.29073 | 232 ft | 0 kts | 343° |
| 2026-05-04 22:40 | 53.34808 | -2.29076 | 232 ft | 13 kts | 17° |
| 2026-05-04 22:41 | 53.34881 | -2.28974 | 232 ft | 14 kts | 47° |
| 2026-05-04 22:41 | 53.34951 | -2.28849 | 231 ft | 14 kts | 47° |
| 2026-05-04 22:41 | 53.35024 | -2.28724 | 231 ft | 15 kts | 45° |
| 2026-05-04 22:41 | 53.35085 | -2.28603 | 232 ft | 11 kts | 51° |
| 2026-05-04 22:42 | 53.35139 | -2.28491 | 231 ft | 12 kts | 50° |
| 2026-05-04 22:42 | 53.35198 | -2.28370 | 231 ft | 13 kts | 51° |
| 2026-05-04 22:42 | 53.35260 | -2.28242 | 231 ft | 13 kts | 51° |
| 2026-05-04 22:42 | 53.35333 | -2.28175 | 231 ft | 12 kts | 12° |
| 2026-05-04 22:43 | 53.35419 | -2.28158 | 231 ft | 12 kts | 9° |
| 2026-05-04 22:43 | 53.35502 | -2.28114 | 231 ft | 12 kts | 28° |
| 2026-05-04 22:43 | 53.35570 | -2.28010 | 231 ft | 13 kts | 48° |
| 2026-05-04 22:43 | 53.35604 | -2.27943 | 231 ft | 2 kts | 50° |
| 2026-05-04 22:44 | 53.35607 | -2.27938 | 231 ft | 1 kts | 50° |
| 2026-05-04 22:44 | 53.35658 | -2.27890 | 231 ft | 12 kts | 12° |
| 2026-05-04 22:44 | 53.35745 | -2.27873 | 231 ft | 13 kts | 6° |
| 2026-05-04 22:44 | 53.35839 | -2.27858 | 231 ft | 13 kts | 5° |
| 2026-05-04 22:45 | 53.35939 | -2.27842 | 231 ft | 12 kts | 7° |
| 2026-05-04 22:45 | 53.36012 | -2.27828 | 231 ft | 1 kts | 6° |
| 2026-05-04 22:45 | 53.36017 | -2.27828 | 231 ft | 1 kts | 4° |
| 2026-05-04 22:46 | 53.36068 | -2.27860 | 232 ft | 9 kts | 332° |
| 2026-05-04 22:46 | 53.36121 | -2.27938 | 232 ft | 10 kts | 314° |
| 2026-05-04 22:46 | 53.36169 | -2.28021 | 232 ft | 4 kts | 315° |
| 2026-05-04 22:46 | 53.36190 | -2.28055 | 231 ft | 3 kts | 315° |
| 2026-05-04 22:47 | 53.36201 | -2.28074 | 232 ft | 2 kts | 315° |
| 2026-05-04 22:47 | 53.36219 | -2.28104 | 232 ft | 4 kts | 315° |